sensor_id;sensor_type;location;lat;lon;timestamp;P1;durP1;ratioP1;P2;durP2;ratioP2
12367;SDS011;6248;49.812;6.620;2024-02-14T00:01:46;2.97;;;1.73;;
12367;SDS011;6248;49.812;6.620;2024-02-14T00:04:14;2.50;;;1.77;;
12367;SDS011;6248;49.812;6.620;2024-02-14T00:06:41;3.33;;;1.70;;
12367;SDS011;6248;49.812;6.620;2024-02-14T00:09:08;1.83;;;1.67;;
12367;SDS011;6248;49.812;6.620;2024-02-14T00:11:37;3.70;;;1.80;;
12367;SDS011;6248;49.812;6.620;2024-02-14T00:14:05;3.70;;;2.20;;
12367;SDS011;6248;49.812;6.620;2024-02-14T00:16:33;1.93;;;1.50;;
12367;SDS011;6248;49.812;6.620;2024-02-14T00:19:01;2.13;;;1.53;;
12367;SDS011;6248;49.812;6.620;2024-02-14T00:21:28;2.20;;;1.70;;
12367;SDS011;6248;49.812;6.620;2024-02-14T00:23:56;2.80;;;1.37;;
12367;SDS011;6248;49.812;6.620;2024-02-14T00:26:24;2.80;;;1.40;;
12367;SDS011;6248;49.812;6.620;2024-02-14T00:28:53;2.83;;;1.50;;
12367;SDS011;6248;49.812;6.620;2024-02-14T00:31:20;4.07;;;1.50;;
12367;SDS011;6248;49.812;6.620;2024-02-14T00:33:47;5.47;;;1.60;;
12367;SDS011;6248;49.812;6.620;2024-02-14T00:36:14;3.17;;;1.50;;
12367;SDS011;6248;49.812;6.620;2024-02-14T00:38:41;2.00;;;1.40;;
12367;SDS011;6248;49.812;6.620;2024-02-14T00:41:10;2.23;;;1.40;;
12367;SDS011;6248;49.812;6.620;2024-02-14T00:43:37;2.03;;;1.20;;
12367;SDS011;6248;49.812;6.620;2024-02-14T00:46:06;2.87;;;1.20;;
12367;SDS011;6248;49.812;6.620;2024-02-14T00:48:33;1.53;;;1.30;;
12367;SDS011;6248;49.812;6.620;2024-02-14T00:51:00;1.53;;;1.27;;
12367;SDS011;6248;49.812;6.620;2024-02-14T00:53:27;2.70;;;1.47;;
12367;SDS011;6248;49.812;6.620;2024-02-14T00:55:54;3.00;;;1.67;;
12367;SDS011;6248;49.812;6.620;2024-02-14T00:58:21;3.73;;;1.77;;
12367;SDS011;6248;49.812;6.620;2024-02-14T01:00:48;2.50;;;1.30;;
12367;SDS011;6248;49.812;6.620;2024-02-14T01:03:17;4.00;;;1.50;;
12367;SDS011;6248;49.812;6.620;2024-02-14T01:05:44;3.00;;;1.50;;
12367;SDS011;6248;49.812;6.620;2024-02-14T01:08:11;8.33;;;5.00;;
12367;SDS011;6248;49.812;6.620;2024-02-14T01:10:39;3.70;;;1.83;;
12367;SDS011;6248;49.812;6.620;2024-02-14T01:13:06;2.70;;;1.50;;
12367;SDS011;6248;49.812;6.620;2024-02-14T01:15:34;2.73;;;1.40;;
12367;SDS011;6248;49.812;6.620;2024-02-14T01:18:01;3.67;;;1.53;;
12367;SDS011;6248;49.812;6.620;2024-02-14T01:20:29;3.60;;;1.40;;
12367;SDS011;6248;49.812;6.620;2024-02-14T01:22:57;2.90;;;1.60;;
12367;SDS011;6248;49.812;6.620;2024-02-14T01:25:24;3.53;;;1.80;;
12367;SDS011;6248;49.812;6.620;2024-02-14T01:27:51;1.43;;;1.33;;
12367;SDS011;6248;49.812;6.620;2024-02-14T01:30:18;2.43;;;1.23;;
12367;SDS011;6248;49.812;6.620;2024-02-14T01:32:45;1.87;;;1.50;;
12367;SDS011;6248;49.812;6.620;2024-02-14T01:35:12;2.97;;;1.77;;
12367;SDS011;6248;49.812;6.620;2024-02-14T01:37:41;2.17;;;1.60;;
12367;SDS011;6248;49.812;6.620;2024-02-14T01:40:10;3.20;;;1.60;;
12367;SDS011;6248;49.812;6.620;2024-02-14T01:42:38;4.17;;;1.50;;
12367;SDS011;6248;49.812;6.620;2024-02-14T01:45:05;3.47;;;1.73;;
12367;SDS011;6248;49.812;6.620;2024-02-14T01:47:32;2.23;;;1.43;;
12367;SDS011;6248;49.812;6.620;2024-02-14T01:50:00;3.10;;;1.50;;
12367;SDS011;6248;49.812;6.620;2024-02-14T01:52:27;3.40;;;1.70;;
12367;SDS011;6248;49.812;6.620;2024-02-14T01:54:56;2.70;;;1.60;;
12367;SDS011;6248;49.812;6.620;2024-02-14T01:57:23;3.10;;;1.57;;
12367;SDS011;6248;49.812;6.620;2024-02-14T01:59:50;3.73;;;1.70;;
12367;SDS011;6248;49.812;6.620;2024-02-14T02:02:19;4.13;;;1.50;;
12367;SDS011;6248;49.812;6.620;2024-02-14T02:04:46;4.03;;;1.50;;
12367;SDS011;6248;49.812;6.620;2024-02-14T02:07:13;4.07;;;1.50;;
12367;SDS011;6248;49.812;6.620;2024-02-14T02:09:40;2.73;;;1.70;;
12367;SDS011;6248;49.812;6.620;2024-02-14T02:12:09;2.57;;;1.43;;
12367;SDS011;6248;49.812;6.620;2024-02-14T02:14:36;2.60;;;1.50;;
12367;SDS011;6248;49.812;6.620;2024-02-14T02:17:05;3.37;;;1.50;;
12367;SDS011;6248;49.812;6.620;2024-02-14T02:19:33;3.20;;;1.50;;
12367;SDS011;6248;49.812;6.620;2024-02-14T02:22:01;3.30;;;1.73;;
12367;SDS011;6248;49.812;6.620;2024-02-14T02:24:31;2.73;;;1.53;;
12367;SDS011;6248;49.812;6.620;2024-02-14T02:26:58;4.63;;;1.70;;
12367;SDS011;6248;49.812;6.620;2024-02-14T02:29:25;2.60;;;1.60;;
12367;SDS011;6248;49.812;6.620;2024-02-14T02:31:52;2.63;;;1.60;;
12367;SDS011;6248;49.812;6.620;2024-02-14T02:34:19;2.60;;;1.47;;
12367;SDS011;6248;49.812;6.620;2024-02-14T02:36:46;5.93;;;1.93;;
12367;SDS011;6248;49.812;6.620;2024-02-14T02:39:16;4.17;;;1.70;;
12367;SDS011;6248;49.812;6.620;2024-02-14T02:41:44;4.20;;;1.80;;
12367;SDS011;6248;49.812;6.620;2024-02-14T02:44:13;3.83;;;1.60;;
12367;SDS011;6248;49.812;6.620;2024-02-14T02:46:40;2.67;;;1.43;;
12367;SDS011;6248;49.812;6.620;2024-02-14T02:49:09;3.40;;;1.50;;
12367;SDS011;6248;49.812;6.620;2024-02-14T02:51:39;3.00;;;1.90;;
12367;SDS011;6248;49.812;6.620;2024-02-14T02:54:06;2.83;;;1.60;;
12367;SDS011;6248;49.812;6.620;2024-02-14T02:56:33;3.80;;;1.87;;
12367;SDS011;6248;49.812;6.620;2024-02-14T02:59:02;3.43;;;1.97;;
12367;SDS011;6248;49.812;6.620;2024-02-14T03:01:34;4.97;;;1.60;;
12367;SDS011;6248;49.812;6.620;2024-02-14T03:04:01;2.80;;;1.60;;
12367;SDS011;6248;49.812;6.620;2024-02-14T03:06:29;2.57;;;1.63;;
12367;SDS011;6248;49.812;6.620;2024-02-14T03:08:56;2.87;;;1.70;;
12367;SDS011;6248;49.812;6.620;2024-02-14T03:11:24;3.07;;;1.87;;
12367;SDS011;6248;49.812;6.620;2024-02-14T03:13:51;3.57;;;1.77;;
12367;SDS011;6248;49.812;6.620;2024-02-14T03:16:20;3.73;;;2.03;;
12367;SDS011;6248;49.812;6.620;2024-02-14T03:18:49;3.00;;;1.63;;
12367;SDS011;6248;49.812;6.620;2024-02-14T03:21:17;2.23;;;1.50;;
12367;SDS011;6248;49.812;6.620;2024-02-14T03:23:44;1.80;;;1.40;;
12367;SDS011;6248;49.812;6.620;2024-02-14T03:26:11;3.23;;;1.63;;
12367;SDS011;6248;49.812;6.620;2024-02-14T03:28:39;4.87;;;1.80;;
12367;SDS011;6248;49.812;6.620;2024-02-14T03:31:06;6.57;;;1.90;;
12367;SDS011;6248;49.812;6.620;2024-02-14T03:33:34;3.57;;;1.80;;
12367;SDS011;6248;49.812;6.620;2024-02-14T03:36:02;3.83;;;2.00;;
12367;SDS011;6248;49.812;6.620;2024-02-14T03:38:29;2.97;;;1.80;;
12367;SDS011;6248;49.812;6.620;2024-02-14T03:40:56;2.50;;;1.80;;
12367;SDS011;6248;49.812;6.620;2024-02-14T03:43:23;3.43;;;1.83;;
12367;SDS011;6248;49.812;6.620;2024-02-14T03:45:50;3.73;;;2.07;;
12367;SDS011;6248;49.812;6.620;2024-02-14T03:48:17;5.23;;;1.90;;
12367;SDS011;6248;49.812;6.620;2024-02-14T03:50:46;3.57;;;2.13;;
12367;SDS011;6248;49.812;6.620;2024-02-14T03:53:13;3.97;;;2.07;;
12367;SDS011;6248;49.812;6.620;2024-02-14T03:55:40;7.87;;;2.23;;
12367;SDS011;6248;49.812;6.620;2024-02-14T03:58:08;5.47;;;2.50;;
12367;SDS011;6248;49.812;6.620;2024-02-14T04:00:35;3.80;;;2.13;;
12367;SDS011;6248;49.812;6.620;2024-02-14T04:03:02;8.43;;;2.53;;
12367;SDS011;6248;49.812;6.620;2024-02-14T04:05:29;3.83;;;2.10;;
12367;SDS011;6248;49.812;6.620;2024-02-14T04:07:58;3.40;;;1.90;;
12367;SDS011;6248;49.812;6.620;2024-02-14T04:10:25;3.37;;;1.77;;
12367;SDS011;6248;49.812;6.620;2024-02-14T04:12:52;5.23;;;1.90;;
12367;SDS011;6248;49.812;6.620;2024-02-14T04:15:19;4.87;;;2.00;;
12367;SDS011;6248;49.812;6.620;2024-02-14T04:17:46;3.87;;;1.97;;
12367;SDS011;6248;49.812;6.620;2024-02-14T04:20:13;6.90;;;2.37;;
12367;SDS011;6248;49.812;6.620;2024-02-14T04:22:40;5.23;;;2.23;;
12367;SDS011;6248;49.812;6.620;2024-02-14T04:25:10;4.43;;;2.00;;
12367;SDS011;6248;49.812;6.620;2024-02-14T04:27:37;3.83;;;1.87;;
12367;SDS011;6248;49.812;6.620;2024-02-14T04:30:05;3.77;;;1.90;;
12367;SDS011;6248;49.812;6.620;2024-02-14T04:32:32;4.97;;;1.83;;
12367;SDS011;6248;49.812;6.620;2024-02-14T04:34:59;3.07;;;1.93;;
12367;SDS011;6248;49.812;6.620;2024-02-14T04:37:26;3.37;;;2.20;;
12367;SDS011;6248;49.812;6.620;2024-02-14T04:39:54;3.13;;;1.77;;
12367;SDS011;6248;49.812;6.620;2024-02-14T04:42:23;4.73;;;1.97;;
12367;SDS011;6248;49.812;6.620;2024-02-14T04:44:50;2.10;;;1.57;;
12367;SDS011;6248;49.812;6.620;2024-02-14T04:47:17;4.03;;;1.97;;
12367;SDS011;6248;49.812;6.620;2024-02-14T04:49:45;2.87;;;1.90;;
12367;SDS011;6248;49.812;6.620;2024-02-14T04:52:12;3.97;;;1.90;;
12367;SDS011;6248;49.812;6.620;2024-02-14T04:54:40;4.90;;;2.67;;
12367;SDS011;6248;49.812;6.620;2024-02-14T04:57:07;3.03;;;1.70;;
12367;SDS011;6248;49.812;6.620;2024-02-14T04:59:36;2.30;;;1.80;;
12367;SDS011;6248;49.812;6.620;2024-02-14T05:02:03;4.53;;;1.90;;
12367;SDS011;6248;49.812;6.620;2024-02-14T05:04:30;4.63;;;2.20;;
12367;SDS011;6248;49.812;6.620;2024-02-14T05:06:57;3.80;;;2.07;;
12367;SDS011;6248;49.812;6.620;2024-02-14T05:09:24;3.73;;;2.27;;
12367;SDS011;6248;49.812;6.620;2024-02-14T05:11:51;6.10;;;2.43;;
12367;SDS011;6248;49.812;6.620;2024-02-14T05:14:19;4.47;;;2.47;;
12367;SDS011;6248;49.812;6.620;2024-02-14T05:16:47;3.93;;;2.47;;
12367;SDS011;6248;49.812;6.620;2024-02-14T05:19:14;2.97;;;2.57;;
12367;SDS011;6248;49.812;6.620;2024-02-14T05:21:42;3.43;;;2.47;;
12367;SDS011;6248;49.812;6.620;2024-02-14T05:24:09;4.63;;;2.47;;
12367;SDS011;6248;49.812;6.620;2024-02-14T05:26:36;3.77;;;2.50;;
12367;SDS011;6248;49.812;6.620;2024-02-14T05:29:03;5.17;;;2.40;;
12367;SDS011;6248;49.812;6.620;2024-02-14T05:31:42;3.80;;;2.60;;
12367;SDS011;6248;49.812;6.620;2024-02-14T05:34:10;3.07;;;2.37;;
12367;SDS011;6248;49.812;6.620;2024-02-14T05:36:37;3.70;;;2.77;;
12367;SDS011;6248;49.812;6.620;2024-02-14T05:39:05;3.73;;;3.07;;
12367;SDS011;6248;49.812;6.620;2024-02-14T05:41:32;3.43;;;2.97;;
12367;SDS011;6248;49.812;6.620;2024-02-14T05:43:59;3.27;;;2.70;;
12367;SDS011;6248;49.812;6.620;2024-02-14T05:46:27;3.37;;;2.73;;
12367;SDS011;6248;49.812;6.620;2024-02-14T05:48:54;3.53;;;2.50;;
12367;SDS011;6248;49.812;6.620;2024-02-14T05:51:23;3.77;;;2.40;;
12367;SDS011;6248;49.812;6.620;2024-02-14T05:53:50;3.43;;;2.40;;
12367;SDS011;6248;49.812;6.620;2024-02-14T05:56:17;3.53;;;2.73;;
12367;SDS011;6248;49.812;6.620;2024-02-14T05:58:44;2.97;;;2.23;;
12367;SDS011;6248;49.812;6.620;2024-02-14T06:01:12;2.93;;;2.53;;
12367;SDS011;6248;49.812;6.620;2024-02-14T06:03:40;2.40;;;2.20;;
12367;SDS011;6248;49.812;6.620;2024-02-14T06:06:08;4.23;;;2.63;;
12367;SDS011;6248;49.812;6.620;2024-02-14T06:08:36;3.07;;;2.40;;
12367;SDS011;6248;49.812;6.620;2024-02-14T06:11:03;4.20;;;3.13;;
12367;SDS011;6248;49.812;6.620;2024-02-14T06:13:30;3.83;;;2.47;;
12367;SDS011;6248;49.812;6.620;2024-02-14T06:15:58;2.50;;;2.27;;
12367;SDS011;6248;49.812;6.620;2024-02-14T06:18:25;5.60;;;2.57;;
12367;SDS011;6248;49.812;6.620;2024-02-14T06:20:52;3.50;;;3.07;;
12367;SDS011;6248;49.812;6.620;2024-02-14T06:23:19;4.13;;;3.43;;
12367;SDS011;6248;49.812;6.620;2024-02-14T06:25:47;3.83;;;3.40;;
12367;SDS011;6248;49.812;6.620;2024-02-14T06:28:15;4.67;;;3.80;;
12367;SDS011;6248;49.812;6.620;2024-02-14T06:30:42;5.37;;;3.43;;
12367;SDS011;6248;49.812;6.620;2024-02-14T06:33:09;3.60;;;3.30;;
12367;SDS011;6248;49.812;6.620;2024-02-14T06:35:35;4.77;;;3.60;;
12367;SDS011;6248;49.812;6.620;2024-02-14T06:38:02;7.80;;;3.87;;
12367;SDS011;6248;49.812;6.620;2024-02-14T06:40:30;5.23;;;3.33;;
12367;SDS011;6248;49.812;6.620;2024-02-14T06:42:59;3.97;;;3.07;;
12367;SDS011;6248;49.812;6.620;2024-02-14T06:45:26;4.47;;;2.90;;
12367;SDS011;6248;49.812;6.620;2024-02-14T06:47:53;4.40;;;3.10;;
12367;SDS011;6248;49.812;6.620;2024-02-14T06:50:21;4.80;;;2.70;;
12367;SDS011;6248;49.812;6.620;2024-02-14T06:52:51;4.50;;;3.20;;
12367;SDS011;6248;49.812;6.620;2024-02-14T06:55:18;4.70;;;2.73;;
12367;SDS011;6248;49.812;6.620;2024-02-14T06:57:45;5.13;;;3.10;;
12367;SDS011;6248;49.812;6.620;2024-02-14T07:00:14;2.97;;;2.63;;
12367;SDS011;6248;49.812;6.620;2024-02-14T07:02:41;3.77;;;3.10;;
12367;SDS011;6248;49.812;6.620;2024-02-14T07:05:09;5.67;;;2.80;;
12367;SDS011;6248;49.812;6.620;2024-02-14T07:07:37;3.00;;;2.67;;
12367;SDS011;6248;49.812;6.620;2024-02-14T07:10:05;2.87;;;2.60;;
12367;SDS011;6248;49.812;6.620;2024-02-14T07:12:32;3.20;;;2.70;;
12367;SDS011;6248;49.812;6.620;2024-02-14T07:15:01;5.43;;;3.30;;
12367;SDS011;6248;49.812;6.620;2024-02-14T07:17:30;3.40;;;3.10;;
12367;SDS011;6248;49.812;6.620;2024-02-14T07:19:57;3.00;;;2.80;;
12367;SDS011;6248;49.812;6.620;2024-02-14T07:22:24;4.30;;;2.93;;
12367;SDS011;6248;49.812;6.620;2024-02-14T07:24:52;3.47;;;3.10;;
12367;SDS011;6248;49.812;6.620;2024-02-14T07:27:20;3.43;;;2.50;;
12367;SDS011;6248;49.812;6.620;2024-02-14T07:29:48;2.97;;;2.77;;
12367;SDS011;6248;49.812;6.620;2024-02-14T07:32:16;3.00;;;2.80;;
12367;SDS011;6248;49.812;6.620;2024-02-14T07:34:45;3.13;;;2.77;;
12367;SDS011;6248;49.812;6.620;2024-02-14T07:37:12;3.13;;;2.87;;
12367;SDS011;6248;49.812;6.620;2024-02-14T07:39:43;3.67;;;3.10;;
12367;SDS011;6248;49.812;6.620;2024-02-14T07:42:11;4.13;;;3.03;;
12367;SDS011;6248;49.812;6.620;2024-02-14T07:44:41;3.40;;;3.10;;
12367;SDS011;6248;49.812;6.620;2024-02-14T07:47:08;3.50;;;3.20;;
12367;SDS011;6248;49.812;6.620;2024-02-14T07:49:35;4.47;;;3.37;;
12367;SDS011;6248;49.812;6.620;2024-02-14T07:52:05;3.30;;;3.00;;
12367;SDS011;6248;49.812;6.620;2024-02-14T07:54:32;3.47;;;2.97;;
12367;SDS011;6248;49.812;6.620;2024-02-14T07:56:59;2.70;;;2.50;;
12367;SDS011;6248;49.812;6.620;2024-02-14T07:59:27;3.90;;;2.90;;
12367;SDS011;6248;49.812;6.620;2024-02-14T08:01:54;3.77;;;2.90;;
12367;SDS011;6248;49.812;6.620;2024-02-14T08:04:23;3.67;;;3.27;;
12367;SDS011;6248;49.812;6.620;2024-02-14T08:06:50;3.70;;;3.00;;
12367;SDS011;6248;49.812;6.620;2024-02-14T08:09:18;3.40;;;3.20;;
12367;SDS011;6248;49.812;6.620;2024-02-14T08:11:46;2.53;;;2.33;;
12367;SDS011;6248;49.812;6.620;2024-02-14T08:14:13;2.97;;;2.70;;
12367;SDS011;6248;49.812;6.620;2024-02-14T08:16:40;2.70;;;2.50;;
12367;SDS011;6248;49.812;6.620;2024-02-14T08:19:07;2.90;;;2.70;;
12367;SDS011;6248;49.812;6.620;2024-02-14T08:21:34;2.70;;;2.50;;
12367;SDS011;6248;49.812;6.620;2024-02-14T08:24:01;3.03;;;2.50;;
12367;SDS011;6248;49.812;6.620;2024-02-14T08:26:30;2.93;;;2.53;;
12367;SDS011;6248;49.812;6.620;2024-02-14T08:28:57;2.90;;;2.70;;
12367;SDS011;6248;49.812;6.620;2024-02-14T08:31:25;2.90;;;2.60;;
12367;SDS011;6248;49.812;6.620;2024-02-14T08:33:52;2.97;;;2.73;;
12367;SDS011;6248;49.812;6.620;2024-02-14T08:36:20;2.50;;;2.30;;
12367;SDS011;6248;49.812;6.620;2024-02-14T08:38:47;2.57;;;2.37;;
12367;SDS011;6248;49.812;6.620;2024-02-14T08:41:14;2.40;;;2.20;;
12367;SDS011;6248;49.812;6.620;2024-02-14T08:43:44;3.33;;;2.80;;
12367;SDS011;6248;49.812;6.620;2024-02-14T08:46:11;2.87;;;2.67;;
12367;SDS011;6248;49.812;6.620;2024-02-14T08:48:39;3.07;;;2.77;;
12367;SDS011;6248;49.812;6.620;2024-02-14T08:51:10;2.80;;;2.60;;
12367;SDS011;6248;49.812;6.620;2024-02-14T08:53:38;3.40;;;3.10;;
12367;SDS011;6248;49.812;6.620;2024-02-14T08:56:06;11.27;;;7.03;;
12367;SDS011;6248;49.812;6.620;2024-02-14T08:58:34;3.10;;;2.80;;
12367;SDS011;6248;49.812;6.620;2024-02-14T09:01:02;3.70;;;3.10;;
12367;SDS011;6248;49.812;6.620;2024-02-14T09:03:30;3.80;;;3.50;;
12367;SDS011;6248;49.812;6.620;2024-02-14T09:05:57;4.40;;;3.30;;
12367;SDS011;6248;49.812;6.620;2024-02-14T09:08:25;3.83;;;3.40;;
12367;SDS011;6248;49.812;6.620;2024-02-14T09:10:53;3.47;;;3.17;;
12367;SDS011;6248;49.812;6.620;2024-02-14T09:13:20;3.37;;;3.17;;
12367;SDS011;6248;49.812;6.620;2024-02-14T09:15:47;3.70;;;3.33;;
12367;SDS011;6248;49.812;6.620;2024-02-14T09:18:16;4.00;;;3.33;;
12367;SDS011;6248;49.812;6.620;2024-02-14T09:20:44;3.73;;;3.43;;
12367;SDS011;6248;49.812;6.620;2024-02-14T09:23:12;4.00;;;3.53;;
12367;SDS011;6248;49.812;6.620;2024-02-14T09:25:44;4.27;;;3.90;;
12367;SDS011;6248;49.812;6.620;2024-02-14T09:28:12;4.87;;;4.03;;
12367;SDS011;6248;49.812;6.620;2024-02-14T09:30:39;4.57;;;3.70;;
12367;SDS011;6248;49.812;6.620;2024-02-14T09:33:12;6.03;;;4.30;;
12367;SDS011;6248;49.812;6.620;2024-02-14T09:35:41;5.90;;;4.60;;
12367;SDS011;6248;49.812;6.620;2024-02-14T09:38:11;5.80;;;4.30;;
12367;SDS011;6248;49.812;6.620;2024-02-14T09:40:40;5.67;;;4.37;;
12367;SDS011;6248;49.812;6.620;2024-02-14T09:43:10;4.47;;;4.03;;
12367;SDS011;6248;49.812;6.620;2024-02-14T09:45:39;7.30;;;4.30;;
12367;SDS011;6248;49.812;6.620;2024-02-14T09:48:07;6.03;;;4.50;;
12367;SDS011;6248;49.812;6.620;2024-02-14T09:50:36;5.83;;;5.00;;
12367;SDS011;6248;49.812;6.620;2024-02-14T09:53:05;8.37;;;4.70;;
12367;SDS011;6248;49.812;6.620;2024-02-14T09:55:34;14.67;;;5.10;;
12367;SDS011;6248;49.812;6.620;2024-02-14T09:58:03;5.10;;;4.57;;
12367;SDS011;6248;49.812;6.620;2024-02-14T10:00:32;16.63;;;4.90;;
12367;SDS011;6248;49.812;6.620;2024-02-14T10:02:59;6.70;;;5.20;;
12367;SDS011;6248;49.812;6.620;2024-02-14T10:05:27;10.83;;;5.27;;
12367;SDS011;6248;49.812;6.620;2024-02-14T10:07:56;8.13;;;5.47;;
12367;SDS011;6248;49.812;6.620;2024-02-14T10:10:25;9.23;;;5.53;;
12367;SDS011;6248;49.812;6.620;2024-02-14T10:12:54;15.33;;;5.70;;
12367;SDS011;6248;49.812;6.620;2024-02-14T10:15:21;11.17;;;6.43;;
12367;SDS011;6248;49.812;6.620;2024-02-14T10:17:48;15.33;;;6.00;;
12367;SDS011;6248;49.812;6.620;2024-02-14T10:20:16;10.80;;;6.60;;
12367;SDS011;6248;49.812;6.620;2024-02-14T10:22:43;16.17;;;6.33;;
12367;SDS011;6248;49.812;6.620;2024-02-14T10:25:10;12.50;;;6.23;;
12367;SDS011;6248;49.812;6.620;2024-02-14T10:27:41;18.33;;;7.37;;
12367;SDS011;6248;49.812;6.620;2024-02-14T10:30:08;10.03;;;6.73;;
12367;SDS011;6248;49.812;6.620;2024-02-14T10:32:36;8.27;;;6.33;;
12367;SDS011;6248;49.812;6.620;2024-02-14T10:35:04;13.93;;;8.57;;
12367;SDS011;6248;49.812;6.620;2024-02-14T10:37:33;10.20;;;6.37;;
12367;SDS011;6248;49.812;6.620;2024-02-14T10:40:01;9.37;;;6.20;;
12367;SDS011;6248;49.812;6.620;2024-02-14T10:42:28;6.20;;;5.23;;
12367;SDS011;6248;49.812;6.620;2024-02-14T10:44:57;6.03;;;5.37;;
12367;SDS011;6248;49.812;6.620;2024-02-14T10:47:26;5.60;;;4.87;;
12367;SDS011;6248;49.812;6.620;2024-02-14T10:49:56;5.13;;;4.53;;
12367;SDS011;6248;49.812;6.620;2024-02-14T10:52:24;3.97;;;3.63;;
12367;SDS011;6248;49.812;6.620;2024-02-14T10:54:52;4.07;;;3.70;;
12367;SDS011;6248;49.812;6.620;2024-02-14T10:57:21;5.80;;;3.90;;
12367;SDS011;6248;49.812;6.620;2024-02-14T10:59:50;6.30;;;4.00;;
12367;SDS011;6248;49.812;6.620;2024-02-14T11:02:19;4.17;;;3.70;;
12367;SDS011;6248;49.812;6.620;2024-02-14T11:04:47;3.70;;;3.40;;
12367;SDS011;6248;49.812;6.620;2024-02-14T11:07:18;4.00;;;3.43;;
12367;SDS011;6248;49.812;6.620;2024-02-14T11:09:59;3.23;;;2.93;;
12367;SDS011;6248;49.812;6.620;2024-02-14T11:12:27;4.80;;;3.13;;
12367;SDS011;6248;49.812;6.620;2024-02-14T11:14:56;3.00;;;2.80;;
12367;SDS011;6248;49.812;6.620;2024-02-14T11:17:27;4.03;;;3.40;;
12367;SDS011;6248;49.812;6.620;2024-02-14T11:19:55;2.60;;;2.40;;
12367;SDS011;6248;49.812;6.620;2024-02-14T11:22:23;2.70;;;2.50;;
12367;SDS011;6248;49.812;6.620;2024-02-14T11:24:51;2.30;;;2.10;;
12367;SDS011;6248;49.812;6.620;2024-02-14T11:27:19;2.57;;;2.10;;
12367;SDS011;6248;49.812;6.620;2024-02-14T11:29:53;2.53;;;2.03;;
12367;SDS011;6248;49.812;6.620;2024-02-14T11:32:21;2.80;;;1.80;;
12367;SDS011;6248;49.812;6.620;2024-02-14T11:34:54;2.77;;;2.30;;
12367;SDS011;6248;49.812;6.620;2024-02-14T11:37:27;2.50;;;1.80;;
12367;SDS011;6248;49.812;6.620;2024-02-14T11:39:55;1.70;;;1.60;;
12367;SDS011;6248;49.812;6.620;2024-02-14T11:42:23;1.90;;;1.80;;
12367;SDS011;6248;49.812;6.620;2024-02-14T11:44:50;1.57;;;1.37;;
12367;SDS011;6248;49.812;6.620;2024-02-14T11:47:18;2.40;;;1.60;;
12367;SDS011;6248;49.812;6.620;2024-02-14T11:49:48;2.53;;;1.73;;
12367;SDS011;6248;49.812;6.620;2024-02-14T11:52:18;1.50;;;1.37;;
12367;SDS011;6248;49.812;6.620;2024-02-14T11:54:46;1.47;;;1.37;;
12367;SDS011;6248;49.812;6.620;2024-02-14T11:57:16;1.40;;;1.30;;
12367;SDS011;6248;49.812;6.620;2024-02-14T11:59:44;1.57;;;1.37;;
12367;SDS011;6248;49.812;6.620;2024-02-14T12:02:13;1.43;;;1.33;;
12367;SDS011;6248;49.812;6.620;2024-02-14T12:04:40;1.67;;;1.57;;
12367;SDS011;6248;49.812;6.620;2024-02-14T12:07:07;2.47;;;1.80;;
12367;SDS011;6248;49.812;6.620;2024-02-14T12:09:36;1.70;;;1.60;;
12367;SDS011;6248;49.812;6.620;2024-02-14T12:12:04;2.10;;;1.60;;
12367;SDS011;6248;49.812;6.620;2024-02-14T12:14:32;1.40;;;1.30;;
12367;SDS011;6248;49.812;6.620;2024-02-14T12:17:00;1.73;;;1.63;;
12367;SDS011;6248;49.812;6.620;2024-02-14T12:19:28;1.80;;;1.70;;
12367;SDS011;6248;49.812;6.620;2024-02-14T12:21:55;1.50;;;1.40;;
12367;SDS011;6248;49.812;6.620;2024-02-14T12:24:26;2.10;;;2.00;;
12367;SDS011;6248;49.812;6.620;2024-02-14T12:26:56;1.83;;;1.73;;
12367;SDS011;6248;49.812;6.620;2024-02-14T12:29:23;1.70;;;1.60;;
12367;SDS011;6248;49.812;6.620;2024-02-14T12:31:52;2.03;;;1.70;;
12367;SDS011;6248;49.812;6.620;2024-02-14T12:34:19;2.50;;;2.30;;
12367;SDS011;6248;49.812;6.620;2024-02-14T12:36:46;2.43;;;1.63;;
12367;SDS011;6248;49.812;6.620;2024-02-14T12:39:13;2.03;;;1.93;;
12367;SDS011;6248;49.812;6.620;2024-02-14T12:41:40;2.13;;;2.03;;
12367;SDS011;6248;49.812;6.620;2024-02-14T12:44:09;2.47;;;2.23;;
12367;SDS011;6248;49.812;6.620;2024-02-14T12:46:36;1.60;;;1.50;;
12367;SDS011;6248;49.812;6.620;2024-02-14T12:49:03;2.20;;;2.10;;
12367;SDS011;6248;49.812;6.620;2024-02-14T12:51:31;1.80;;;1.70;;
12367;SDS011;6248;49.812;6.620;2024-02-14T12:53:58;1.80;;;1.70;;
12367;SDS011;6248;49.812;6.620;2024-02-14T12:56:25;1.30;;;1.30;;
12367;SDS011;6248;49.812;6.620;2024-02-14T12:58:52;1.50;;;1.40;;
12367;SDS011;6248;49.812;6.620;2024-02-14T13:01:21;1.57;;;1.47;;
12367;SDS011;6248;49.812;6.620;2024-02-14T13:03:48;1.60;;;1.50;;
12367;SDS011;6248;49.812;6.620;2024-02-14T13:06:15;1.90;;;1.80;;
12367;SDS011;6248;49.812;6.620;2024-02-14T13:08:43;1.30;;;1.30;;
12367;SDS011;6248;49.812;6.620;2024-02-14T13:11:10;2.07;;;1.40;;
12367;SDS011;6248;49.812;6.620;2024-02-14T13:13:39;1.70;;;1.60;;
12367;SDS011;6248;49.812;6.620;2024-02-14T13:16:07;1.70;;;1.60;;
12367;SDS011;6248;49.812;6.620;2024-02-14T13:18:36;1.10;;;1.10;;
12367;SDS011;6248;49.812;6.620;2024-02-14T13:21:03;1.63;;;1.40;;
12367;SDS011;6248;49.812;6.620;2024-02-14T13:23:30;1.40;;;1.30;;
12367;SDS011;6248;49.812;6.620;2024-02-14T13:25:57;1.30;;;1.30;;
12367;SDS011;6248;49.812;6.620;2024-02-14T13:28:24;3.10;;;1.70;;
12367;SDS011;6248;49.812;6.620;2024-02-14T13:30:52;1.47;;;1.37;;
12367;SDS011;6248;49.812;6.620;2024-02-14T13:33:19;2.60;;;1.40;;
12367;SDS011;6248;49.812;6.620;2024-02-14T13:35:47;1.50;;;1.40;;
12367;SDS011;6248;49.812;6.620;2024-02-14T13:38:14;1.80;;;1.70;;
12367;SDS011;6248;49.812;6.620;2024-02-14T13:40:42;1.70;;;1.60;;
12367;SDS011;6248;49.812;6.620;2024-02-14T13:43:09;1.83;;;1.70;;
12367;SDS011;6248;49.812;6.620;2024-02-14T13:45:40;1.70;;;1.60;;
12367;SDS011;6248;49.812;6.620;2024-02-14T13:48:08;1.70;;;1.60;;
12367;SDS011;6248;49.812;6.620;2024-02-14T13:50:35;3.57;;;2.20;;
12367;SDS011;6248;49.812;6.620;2024-02-14T13:53:04;2.60;;;2.40;;
12367;SDS011;6248;49.812;6.620;2024-02-14T13:55:31;2.57;;;2.37;;
12367;SDS011;6248;49.812;6.620;2024-02-14T13:57:58;2.43;;;2.33;;
12367;SDS011;6248;49.812;6.620;2024-02-14T14:00:25;2.13;;;2.00;;
12367;SDS011;6248;49.812;6.620;2024-02-14T14:02:53;2.13;;;2.03;;
12367;SDS011;6248;49.812;6.620;2024-02-14T14:05:20;2.30;;;2.20;;
12367;SDS011;6248;49.812;6.620;2024-02-14T14:07:48;2.30;;;2.10;;
12367;SDS011;6248;49.812;6.620;2024-02-14T14:10:16;2.50;;;2.30;;
12367;SDS011;6248;49.812;6.620;2024-02-14T14:12:43;3.27;;;2.60;;
12367;SDS011;6248;49.812;6.620;2024-02-14T14:15:10;2.80;;;2.60;;
12367;SDS011;6248;49.812;6.620;2024-02-14T14:17:37;3.10;;;2.90;;
12367;SDS011;6248;49.812;6.620;2024-02-14T14:20:05;2.43;;;2.23;;
12367;SDS011;6248;49.812;6.620;2024-02-14T14:22:33;2.67;;;2.37;;
12367;SDS011;6248;49.812;6.620;2024-02-14T14:25:00;2.40;;;2.20;;
12367;SDS011;6248;49.812;6.620;2024-02-14T14:27:31;3.17;;;2.60;;
12367;SDS011;6248;49.812;6.620;2024-02-14T14:29:58;2.60;;;2.40;;
12367;SDS011;6248;49.812;6.620;2024-02-14T14:32:25;2.90;;;2.70;;
12367;SDS011;6248;49.812;6.620;2024-02-14T14:34:52;2.97;;;2.77;;
12367;SDS011;6248;49.812;6.620;2024-02-14T14:37:20;2.50;;;2.40;;
12367;SDS011;6248;49.812;6.620;2024-02-14T14:39:47;2.33;;;2.23;;
12367;SDS011;6248;49.812;6.620;2024-02-14T14:42:14;2.53;;;2.43;;
12367;SDS011;6248;49.812;6.620;2024-02-14T14:44:44;2.83;;;2.63;;
12367;SDS011;6248;49.812;6.620;2024-02-14T14:47:11;2.67;;;2.47;;
12367;SDS011;6248;49.812;6.620;2024-02-14T14:49:38;2.70;;;2.50;;
12367;SDS011;6248;49.812;6.620;2024-02-14T14:52:06;2.60;;;2.40;;
12367;SDS011;6248;49.812;6.620;2024-02-14T14:54:33;2.47;;;2.27;;
12367;SDS011;6248;49.812;6.620;2024-02-14T14:57:00;2.30;;;2.10;;
12367;SDS011;6248;49.812;6.620;2024-02-14T14:59:29;2.10;;;2.00;;
12367;SDS011;6248;49.812;6.620;2024-02-14T15:01:57;2.43;;;2.23;;
12367;SDS011;6248;49.812;6.620;2024-02-14T15:04:24;2.30;;;2.10;;